Time,TemperatureF,DewpointF,PressureIn,WindDirection,WindDirectionDegrees,WindSpeedMPH,WindSpeedGustMPH,Humidity,HourlyPrecipIn,Conditions,Clouds,dailyrainin,SoftwareType,DateUTC
2013-07-23 00:01:00,76.8,71.9,29.68,SSW,203,0.0,0.0,85,0.00,,,0.00,WUHU216HW,2013-07-23 04:01:00,
2013-07-23 00:06:00,76.8,71.9,29.68,SE,135,0.0,0.0,85,0.00,,,0.00,WUHU216HW,2013-07-23 04:06:00,
2013-07-23 00:11:00,76.8,71.9,29.68,WSW,248,0.0,0.0,85,0.00,,,0.00,WUHU216HW,2013-07-23 04:11:00,
2013-07-23 00:16:00,76.8,71.9,29.67,South,180,0.0,0.0,85,0.00,,,0.00,WUHU216HW,2013-07-23 04:16:00,
2013-07-23 00:21:00,76.6,71.7,29.67,SW,225,0.0,0.0,85,0.00,,,0.00,WUHU216HW,2013-07-23 04:21:00,
2013-07-23 00:26:00,76.6,71.7,29.68,South,180,0.0,0.0,85,0.00,,,0.00,WUHU216HW,2013-07-23 04:26:00,
2013-07-23 00:31:00,76.6,71.7,29.68,South,180,0.0,0.0,85,0.00,,,0.00,WUHU216HW,2013-07-23 04:31:00,
2013-07-23 00:36:00,76.6,71.7,29.68,SSE,158,0.0,0.0,85,0.00,,,0.00,WUHU216HW,2013-07-23 04:36:00,
2013-07-23 00:41:00,76.6,71.7,29.67,SSW,203,0.0,0.0,85,0.00,,,0.00,WUHU216HW,2013-07-23 04:41:00,
2013-07-23 00:46:00,76.6,72.1,29.67,SW,225,0.0,0.0,86,0.00,,,0.00,WUHU216HW,2013-07-23 04:46:00,
2013-07-23 00:51:00,76.4,71.9,29.67,South,180,0.0,0.0,86,0.00,,,0.00,WUHU216HW,2013-07-23 04:51:00,
2013-07-23 00:56:00,76.4,71.9,29.67,SSW,203,0.0,0.0,86,0.00,,,0.00,WUHU216HW,2013-07-23 04:56:00,
2013-07-23 01:01:00,76.4,71.9,29.66,WNW,293,0.0,0.0,86,0.00,,,0.00,WUHU216HW,2013-07-23 05:01:00,
2013-07-23 01:06:00,76.4,71.9,29.67,SW,225,0.0,0.0,86,0.00,,,0.00,WUHU216HW,2013-07-23 05:06:00,
2013-07-23 01:11:00,76.2,71.7,29.66,SSE,158,0.0,0.0,86,0.00,,,0.00,WUHU216HW,2013-07-23 05:11:00,
2013-07-23 01:16:00,76.2,71.7,29.66,SE,135,0.0,0.0,86,0.00,,,0.00,WUHU216HW,2013-07-23 05:16:00,
2013-07-23 01:21:00,76.2,71.7,29.66,SE,135,0.0,0.0,86,0.00,,,0.00,WUHU216HW,2013-07-23 05:21:00,
2013-07-23 01:26:00,76.2,71.7,29.66,SW,225,0.0,0.0,86,0.00,,,0.00,WUHU216HW,2013-07-23 05:26:00,
2013-07-23 01:31:00,76.2,71.7,29.66,SE,135,0.0,0.0,86,0.00,,,0.00,WUHU216HW,2013-07-23 05:31:00,
2013-07-23 01:36:00,76.1,71.6,29.66,SW,225,0.0,0.0,86,0.00,,,0.00,WUHU216HW,2013-07-23 05:36:00,
2013-07-23 01:41:00,76.1,71.6,29.66,SE,135,0.0,0.0,86,0.00,,,0.00,WUHU216HW,2013-07-23 05:41:00,
2013-07-23 01:46:00,76.1,71.6,29.66,SW,225,0.0,0.0,86,0.00,,,0.00,WUHU216HW,2013-07-23 05:46:00,
2013-07-23 01:51:00,75.9,71.4,29.66,ENE,68,0.0,0.0,86,0.00,,,0.00,WUHU216HW,2013-07-23 05:51:00,
2013-07-23 01:56:00,75.9,71.4,29.66,NNW,338,0.0,0.0,86,0.00,,,0.00,WUHU216HW,2013-07-23 05:56:00,
2013-07-23 02:01:00,75.9,71.7,29.66,SSE,158,0.0,0.0,87,0.00,,,0.00,WUHU216HW,2013-07-23 06:01:00,
2013-07-23 02:06:00,75.9,71.7,29.65,West,270,0.0,0.0,87,0.00,,,0.00,WUHU216HW,2013-07-23 06:06:00,
2013-07-23 02:11:00,75.9,71.7,29.65,SSE,158,0.0,0.0,87,0.00,,,0.00,WUHU216HW,2013-07-23 06:11:00,
2013-07-23 02:16:00,75.7,71.6,29.65,WSW,248,0.0,0.0,87,0.00,,,0.00,WUHU216HW,2013-07-23 06:16:00,
2013-07-23 02:21:00,75.7,71.6,29.65,NW,315,0.0,0.0,87,0.00,,,0.00,WUHU216HW,2013-07-23 06:21:00,
2013-07-23 02:26:00,75.7,71.6,29.65,WSW,248,0.0,0.0,87,0.00,,,0.00,WUHU216HW,2013-07-23 06:26:00,
2013-07-23 02:31:00,75.7,71.6,29.65,SE,135,0.0,0.0,87,0.00,,,0.00,WUHU216HW,2013-07-23 06:31:00,
2013-07-23 02:36:00,75.7,71.6,29.65,NW,315,0.0,0.0,87,0.00,,,0.00,WUHU216HW,2013-07-23 06:36:00,
2013-07-23 02:41:00,75.7,71.6,29.64,SSE,158,0.0,0.0,87,0.00,,,0.00,WUHU216HW,2013-07-23 06:41:00,
2013-07-23 02:46:00,75.7,71.6,29.64,NW,315,0.0,0.0,87,0.00,,,0.00,WUHU216HW,2013-07-23 06:46:00,
2013-07-23 02:51:00,75.5,71.4,29.64,NW,315,0.0,0.0,87,0.00,,,0.00,WUHU216HW,2013-07-23 06:51:00,
2013-07-23 02:56:00,75.3,71.2,29.64,SW,225,0.0,0.0,87,0.00,,,0.00,WUHU216HW,2013-07-23 06:56:00,
2013-07-23 03:01:00,75.5,71.4,29.65,West,270,0.0,0.0,87,0.00,,,0.00,WUHU216HW,2013-07-23 07:01:00,
2013-07-23 03:06:00,75.3,71.6,29.65,North,0,0.0,0.0,88,0.00,,,0.00,WUHU216HW,2013-07-23 07:06:00,
2013-07-23 03:11:00,75.3,71.6,29.65,West,270,0.0,0.0,88,0.00,,,0.00,WUHU216HW,2013-07-23 07:11:00,
2013-07-23 03:16:00,75.3,71.6,29.65,SW,225,0.0,0.0,88,0.00,,,0.00,WUHU216HW,2013-07-23 07:16:00,
2013-07-23 03:21:00,75.3,71.6,29.65,South,180,0.0,0.0,88,0.00,,,0.00,WUHU216HW,2013-07-23 07:21:00,
2013-07-23 03:26:00,75.3,71.6,29.65,WSW,248,0.0,0.0,88,0.00,,,0.00,WUHU216HW,2013-07-23 07:26:00,
2013-07-23 03:31:00,75.3,71.6,29.65,SW,225,0.0,0.0,88,0.00,,,0.00,WUHU216HW,2013-07-23 07:31:00,
2013-07-23 03:36:00,75.2,71.4,29.64,SW,225,0.0,0.0,88,0.00,,,0.00,WUHU216HW,2013-07-23 07:36:00,
2013-07-23 03:41:00,75.3,71.6,29.64,NW,315,0.0,0.0,88,0.00,,,0.00,WUHU216HW,2013-07-23 07:41:00,
2013-07-23 03:46:00,75.2,71.4,29.64,South,180,0.0,0.0,88,0.00,,,0.00,WUHU216HW,2013-07-23 07:46:00,
2013-07-23 03:51:00,75.2,71.4,29.65,WSW,248,0.0,0.0,88,0.00,,,0.00,WUHU216HW,2013-07-23 07:51:00,
2013-07-23 03:56:00,75.2,71.7,29.64,West,270,0.0,0.0,89,0.00,,,0.00,WUHU216HW,2013-07-23 07:56:00,
2013-07-23 04:01:00,75.2,71.7,29.65,West,270,0.0,0.0,89,0.00,,,0.00,WUHU216HW,2013-07-23 08:01:00,
2013-07-23 04:06:00,75.0,71.6,29.65,South,180,0.0,0.0,89,0.00,,,0.00,WUHU216HW,2013-07-23 08:06:00,
2013-07-23 04:11:00,75.2,71.7,29.64,SW,225,0.0,0.0,89,0.00,,,0.00,WUHU216HW,2013-07-23 08:11:00,
2013-07-23 04:16:00,75.2,71.7,29.64,SSW,203,0.0,0.0,89,0.00,,,0.00,WUHU216HW,2013-07-23 08:16:00,
2013-07-23 04:21:00,75.0,71.6,29.64,SW,225,0.0,0.0,89,0.00,,,0.00,WUHU216HW,2013-07-23 08:21:00,
2013-07-23 04:26:00,75.0,71.6,29.65,West,270,0.0,0.0,89,0.00,,,0.00,WUHU216HW,2013-07-23 08:26:00,
2013-07-23 04:31:00,75.0,71.6,29.65,NNE,23,0.0,0.0,89,0.00,,,0.00,WUHU216HW,2013-07-23 08:31:00,
2013-07-23 04:36:00,75.0,71.6,29.65,WNW,293,0.0,0.0,89,0.00,,,0.00,WUHU216HW,2013-07-23 08:36:00,
2013-07-23 04:41:00,75.0,71.6,29.66,NW,315,0.0,0.0,89,0.00,,,0.00,WUHU216HW,2013-07-23 08:41:00,
2013-07-23 04:46:00,75.0,71.6,29.66,WNW,293,0.0,0.0,89,0.00,,,0.00,WUHU216HW,2013-07-23 08:46:00,
2013-07-23 04:51:00,75.0,71.6,29.66,WNW,293,0.0,0.0,89,0.00,,,0.00,WUHU216HW,2013-07-23 08:51:00,
2013-07-23 04:56:00,75.0,71.6,29.66,WNW,293,0.0,0.0,89,0.00,,,0.00,WUHU216HW,2013-07-23 08:56:00,
2013-07-23 05:01:00,75.0,71.6,29.66,NW,315,0.0,0.0,89,0.00,,,0.00,WUHU216HW,2013-07-23 09:01:00,
2013-07-23 05:06:00,75.0,71.6,29.65,NNE,23,0.0,0.0,89,0.00,,,0.00,WUHU216HW,2013-07-23 09:06:00,
2013-07-23 05:11:00,74.8,71.4,29.66,WSW,248,0.0,0.0,89,0.00,,,0.00,WUHU216HW,2013-07-23 09:11:00,
2013-07-23 05:16:00,74.8,71.4,29.66,SW,225,0.0,0.0,89,0.00,,,0.00,WUHU216HW,2013-07-23 09:16:00,
2013-07-23 05:21:00,74.8,71.4,29.66,WSW,248,0.0,0.0,89,0.00,,,0.00,WUHU216HW,2013-07-23 09:21:00,
2013-07-23 05:26:00,74.8,71.4,29.66,SE,135,0.0,0.0,89,0.00,,,0.00,WUHU216HW,2013-07-23 09:26:00,
2013-07-23 05:31:00,74.6,71.2,29.66,SSE,158,0.0,0.0,89,0.00,,,0.00,WUHU216HW,2013-07-23 09:31:00,
2013-07-23 05:36:00,74.4,71.0,29.66,SW,225,0.0,0.0,89,0.00,,,0.00,WUHU216HW,2013-07-23 09:36:00,
2013-07-23 05:41:00,74.4,71.0,29.66,SSW,203,0.0,0.0,89,0.00,,,0.00,WUHU216HW,2013-07-23 09:41:00,
2013-07-23 05:46:00,74.4,71.0,29.66,SSW,203,0.0,0.0,89,0.00,,,0.00,WUHU216HW,2013-07-23 09:46:00,
2013-07-23 05:51:00,74.3,70.8,29.66,West,270,0.0,0.0,89,0.00,,,0.00,WUHU216HW,2013-07-23 09:51:00,
2013-07-23 05:56:00,74.3,70.8,29.66,SSE,158,0.0,0.0,89,0.00,,,0.00,WUHU216HW,2013-07-23 09:56:00,
2013-07-23 06:01:00,74.1,70.7,29.66,SW,225,0.0,0.0,89,0.00,,,0.00,WUHU216HW,2013-07-23 10:01:00,
2013-07-23 06:06:00,74.1,70.7,29.66,South,180,0.0,0.0,89,0.00,,,0.00,WUHU216HW,2013-07-23 10:06:00,
2013-07-23 06:11:00,74.1,70.7,29.66,SE,135,0.0,0.0,89,0.00,,,0.00,WUHU216HW,2013-07-23 10:11:00,
2013-07-23 06:16:00,74.1,70.7,29.67,NW,315,0.0,0.0,89,0.00,,,0.00,WUHU216HW,2013-07-23 10:16:00,
2013-07-23 06:21:00,74.1,70.7,29.67,SW,225,0.0,0.0,89,0.00,,,0.00,WUHU216HW,2013-07-23 10:21:00,
2013-07-23 06:26:00,74.1,70.7,29.67,WNW,293,0.0,0.0,89,0.00,,,0.00,WUHU216HW,2013-07-23 10:26:00,
2013-07-23 06:31:00,73.9,70.7,29.67,WNW,293,0.0,0.0,89,0.00,,,0.00,WUHU216HW,2013-07-23 10:31:00,
2013-07-23 06:36:00,73.9,70.5,29.67,WNW,293,0.0,0.0,89,0.00,,,0.00,WUHU216HW,2013-07-23 10:36:00,
2013-07-23 06:41:00,74.1,70.7,29.67,SW,225,0.0,0.0,89,0.00,,,0.00,WUHU216HW,2013-07-23 10:41:00,
2013-07-23 06:46:00,74.1,70.7,29.67,SW,225,0.0,0.0,89,0.00,,,0.00,WUHU216HW,2013-07-23 10:46:00,
2013-07-23 06:51:00,74.1,70.5,29.67,SW,225,0.0,0.0,89,0.00,,,0.00,WUHU216HW,2013-07-23 10:51:00,
2013-07-23 06:56:00,73.9,70.5,29.67,SW,225,0.0,0.0,89,0.00,,,0.00,WUHU216HW,2013-07-23 10:56:00,
2013-07-23 07:01:00,73.9,70.5,29.67,SW,225,0.0,0.0,89,0.00,,,0.00,WUHU216HW,2013-07-23 11:01:00,
2013-07-23 07:06:00,73.9,70.5,29.67,SSW,203,0.0,0.0,89,0.00,,,0.00,WUHU216HW,2013-07-23 11:06:00,
2013-07-23 07:11:00,73.9,70.5,29.68,SSW,203,0.0,0.0,89,0.00,,,0.00,WUHU216HW,2013-07-23 11:11:00,
2013-07-23 07:16:00,73.9,70.5,29.68,West,270,0.0,0.0,89,0.00,,,0.00,WUHU216HW,2013-07-23 11:16:00,
2013-07-23 07:21:00,73.9,70.5,29.68,SSW,203,0.0,0.0,89,0.00,,,0.00,WUHU216HW,2013-07-23 11:21:00,
2013-07-23 07:26:00,73.9,70.5,29.68,WSW,248,0.0,0.0,89,0.00,,,0.00,WUHU216HW,2013-07-23 11:26:00,
2013-07-23 07:31:00,74.1,70.7,29.68,South,180,0.0,0.0,89,0.00,,,0.00,WUHU216HW,2013-07-23 11:31:00,
2013-07-23 07:36:00,74.1,70.7,29.68,SW,225,0.0,0.0,89,0.00,,,0.00,WUHU216HW,2013-07-23 11:36:00,
2013-07-23 07:41:00,74.1,70.7,29.68,SW,225,0.0,0.0,89,0.00,,,0.00,WUHU216HW,2013-07-23 11:41:00,
2013-07-23 07:46:00,74.1,70.7,29.68,West,270,0.0,0.0,89,0.00,,,0.00,WUHU216HW,2013-07-23 11:46:00,
2013-07-23 07:51:00,74.1,70.7,29.68,SSE,158,0.0,0.0,89,0.00,,,0.00,WUHU216HW,2013-07-23 11:51:00,
2013-07-23 07:56:00,74.3,70.8,29.68,SSE,158,0.0,0.0,89,0.00,,,0.00,WUHU216HW,2013-07-23 11:56:00,
2013-07-23 08:01:00,74.3,70.8,29.68,SSW,203,0.0,0.0,89,0.00,,,0.00,WUHU216HW,2013-07-23 12:01:00,
2013-07-23 08:06:00,74.3,70.8,29.68,West,270,0.0,0.0,89,0.00,,,0.00,WUHU216HW,2013-07-23 12:06:00,
2013-07-23 08:11:00,74.3,70.8,29.68,West,270,0.0,0.0,89,0.00,,,0.00,WUHU216HW,2013-07-23 12:11:00,
2013-07-23 08:16:00,74.3,70.7,29.68,NW,315,0.0,0.0,89,0.00,,,0.00,WUHU216HW,2013-07-23 12:16:00,
2013-07-23 08:21:00,74.3,70.8,29.68,NW,315,0.0,0.0,89,0.00,,,0.00,WUHU216HW,2013-07-23 12:21:00,
2013-07-23 08:26:00,74.4,71.0,29.67,ESE,113,0.0,0.0,89,0.00,,,0.00,WUHU216HW,2013-07-23 12:26:00,
2013-07-23 08:31:00,74.4,71.0,29.68,WSW,248,0.0,0.0,89,0.00,,,0.00,WUHU216HW,2013-07-23 12:31:00,
2013-07-23 08:36:00,74.4,71.0,29.68,SSW,203,0.0,0.0,89,0.00,,,0.00,WUHU216HW,2013-07-23 12:36:00,
2013-07-23 08:41:00,74.8,71.0,29.68,SSE,158,0.0,0.0,89,0.00,,,0.00,WUHU216HW,2013-07-23 12:41:00,
2013-07-23 08:46:00,74.8,71.4,29.68,South,180,0.0,0.0,89,0.00,,,0.00,WUHU216HW,2013-07-23 12:46:00,
2013-07-23 08:51:00,75.0,71.6,29.68,SW,225,0.0,0.0,89,0.00,,,0.00,WUHU216HW,2013-07-23 12:51:00,
2013-07-23 08:56:00,75.0,71.6,29.68,South,180,0.0,0.0,89,0.00,,,0.00,WUHU216HW,2013-07-23 12:56:00,
2013-07-23 09:01:00,75.0,71.2,29.68,South,180,0.0,0.0,88,0.00,,,0.00,WUHU216HW,2013-07-23 13:01:00,
2013-07-23 09:06:00,75.0,71.2,29.68,SW,225,0.0,0.0,88,0.00,,,0.00,WUHU216HW,2013-07-23 13:06:00,
2013-07-23 09:11:00,75.0,71.2,29.68,ESE,113,0.0,0.0,88,0.00,,,0.00,WUHU216HW,2013-07-23 13:11:00,
2013-07-23 09:16:00,75.0,70.9,29.68,NW,315,0.0,0.0,87,0.00,,,0.00,WUHU216HW,2013-07-23 13:16:00,
2013-07-23 09:21:00,75.0,70.7,29.68,NNW,338,0.0,0.0,87,0.00,,,0.00,WUHU216HW,2013-07-23 13:21:00,
2013-07-23 09:26:00,74.8,70.7,29.68,WSW,248,0.0,0.0,87,0.00,,,0.00,WUHU216HW,2013-07-23 13:26:00,
2013-07-23 09:31:00,74.8,70.7,29.68,WSW,248,0.0,0.0,87,0.00,,,0.00,WUHU216HW,2013-07-23 13:31:00,
2013-07-23 09:36:00,74.8,70.7,29.68,WNW,293,0.0,0.0,87,0.00,,,0.00,WUHU216HW,2013-07-23 13:36:00,
2013-07-23 09:41:00,75.0,71.2,29.67,North,0,0.0,0.0,88,0.00,,,0.00,WUHU216HW,2013-07-23 13:41:00,
2013-07-23 09:46:00,75.3,71.6,29.67,WSW,248,0.0,0.0,88,0.00,,,0.00,WUHU216HW,2013-07-23 13:46:00,
2013-07-23 09:51:00,75.5,71.7,29.67,South,180,0.0,0.0,88,0.00,,,0.00,WUHU216HW,2013-07-23 13:51:00,
2013-07-23 09:56:00,75.7,71.9,29.67,South,180,0.0,0.0,88,0.00,,,0.00,WUHU216HW,2013-07-23 13:56:00,
2013-07-23 10:01:00,75.9,71.7,29.67,NW,315,0.0,0.0,87,0.00,,,0.00,WUHU216HW,2013-07-23 14:01:00,
2013-07-23 10:06:00,76.2,72.1,29.67,WNW,293,0.0,0.0,87,0.00,,,0.00,WUHU216HW,2013-07-23 14:06:00,
2013-07-23 10:11:00,76.8,72.6,29.67,South,180,0.0,0.0,87,0.00,,,0.00,WUHU216HW,2013-07-23 14:11:00,
2013-07-23 10:16:00,77.1,73.0,29.68,West,270,0.0,0.0,87,0.00,,,0.00,WUHU216HW,2013-07-23 14:16:00,
2013-07-23 10:21:00,77.5,73.0,29.67,SW,225,0.0,0.0,86,0.00,,,0.00,WUHU216HW,2013-07-23 14:21:00,
2013-07-23 10:26:00,77.7,72.8,29.68,South,180,0.0,0.0,85,0.00,,,0.00,WUHU216HW,2013-07-23 14:26:00,
2013-07-23 10:31:00,78.0,73.2,29.68,SSW,203,0.0,0.0,85,0.00,,,0.00,WUHU216HW,2013-07-23 14:31:00,
2013-07-23 10:36:00,78.4,73.0,29.67,WNW,293,0.0,0.0,84,0.00,,,0.00,WUHU216HW,2013-07-23 14:36:00,
2013-07-23 10:41:00,78.6,73.4,29.67,West,270,0.0,0.0,84,0.00,,,0.00,WUHU216HW,2013-07-23 14:41:00,
2013-07-23 10:46:00,78.6,73.0,29.67,NNW,338,0.0,0.0,83,0.00,,,0.00,WUHU216HW,2013-07-23 14:46:00,
2013-07-23 10:51:00,78.8,72.8,29.67,South,180,0.0,0.0,82,0.00,,,0.00,WUHU216HW,2013-07-23 14:51:00,
2013-07-23 10:56:00,78.9,73.0,29.68,West,270,0.0,0.0,82,0.00,,,0.00,WUHU216HW,2013-07-23 14:56:00,
2013-07-23 11:01:00,79.3,73.3,29.67,SSW,203,0.0,0.0,82,0.00,,,0.00,WUHU216HW,2013-07-23 15:01:00,
2013-07-23 11:06:00,79.5,73.2,29.67,WSW,248,0.0,0.0,81,0.00,,,0.00,WUHU216HW,2013-07-23 15:06:00,
2013-07-23 11:11:00,79.5,73.2,29.67,NNW,338,0.0,0.0,81,0.00,,,0.00,WUHU216HW,2013-07-23 15:11:00,
2013-07-23 11:16:00,79.8,73.2,29.67,SW,225,0.0,0.0,80,0.00,,,0.00,WUHU216HW,2013-07-23 15:16:00,
2013-07-23 11:21:00,80.0,73.4,29.67,SSE,158,0.0,0.0,80,0.00,,,0.00,WUHU216HW,2013-07-23 15:21:00,
2013-07-23 11:26:00,80.2,73.1,29.67,SE,135,0.0,0.0,79,0.00,,,0.00,WUHU216HW,2013-07-23 15:26:00,
2013-07-23 11:31:00,80.4,73.3,29.67,WNW,293,0.0,0.0,79,0.00,,,0.00,WUHU216HW,2013-07-23 15:31:00,
2013-07-23 11:36:00,80.4,73.3,29.67,ESE,113,0.0,0.0,79,0.00,,,0.00,WUHU216HW,2013-07-23 15:36:00,
2013-07-23 11:41:00,80.7,73.3,29.66,WSW,248,0.0,0.0,78,0.00,,,0.00,WUHU216HW,2013-07-23 15:41:00,
2013-07-23 11:46:00,80.9,73.4,29.66,SSW,203,0.0,0.0,78,0.00,,,0.00,WUHU216HW,2013-07-23 15:46:00,
2013-07-23 11:51:00,81.1,73.6,29.67,West,270,0.0,0.0,78,0.00,,,0.00,WUHU216HW,2013-07-23 15:51:00,
2013-07-23 11:56:00,81.3,73.4,29.67,West,270,0.0,0.0,77,0.00,,,0.00,WUHU216HW,2013-07-23 15:56:00,
2013-07-23 12:01:00,81.5,73.6,29.66,WNW,293,0.0,0.0,77,0.00,,,0.00,WUHU216HW,2013-07-23 16:01:00,
2013-07-23 12:06:00,81.6,73.7,29.67,SE,135,0.0,0.0,77,0.00,,,0.00,WUHU216HW,2013-07-23 16:06:00,
2013-07-23 12:11:00,82.0,73.7,29.67,SE,135,0.0,0.0,76,0.00,,,0.00,WUHU216HW,2013-07-23 16:11:00,
2013-07-23 12:16:00,82.0,73.7,29.66,SSE,158,0.0,0.0,76,0.00,,,0.00,WUHU216HW,2013-07-23 16:16:00,
2013-07-23 12:21:00,82.2,73.4,29.67,WNW,293,0.0,0.0,75,0.00,,,0.00,WUHU216HW,2013-07-23 16:21:00,
2013-07-23 12:26:00,82.5,73.8,29.67,South,180,0.0,0.0,75,0.00,,,0.00,WUHU216HW,2013-07-23 16:26:00,
2013-07-23 12:31:00,82.7,74.0,29.68,West,270,0.0,0.0,75,0.00,,,0.00,WUHU216HW,2013-07-23 16:31:00,
2013-07-23 12:36:00,82.9,73.7,29.67,WNW,293,0.0,0.0,74,0.00,,,0.00,WUHU216HW,2013-07-23 16:36:00,
2013-07-23 12:41:00,82.9,73.7,29.67,NW,315,0.0,0.0,74,0.00,,,0.00,WUHU216HW,2013-07-23 16:41:00,
2013-07-23 12:46:00,82.5,73.4,29.67,WNW,293,0.0,0.0,74,0.00,,,0.00,WUHU216HW,2013-07-23 16:46:00,
2013-07-23 12:51:00,82.2,73.4,29.68,NE,45,0.0,0.0,75,0.00,,,0.00,WUHU216HW,2013-07-23 16:51:00,
2013-07-23 12:56:00,82.2,73.4,29.67,NNW,338,0.0,0.0,75,0.00,,,0.00,WUHU216HW,2013-07-23 16:56:00,
2013-07-23 13:01:00,82.4,73.2,29.67,NW,315,0.0,0.0,74,0.00,,,0.00,WUHU216HW,2013-07-23 17:01:00,
2013-07-23 13:06:00,82.7,73.5,29.67,North,0,0.0,0.0,74,0.00,,,0.00,WUHU216HW,2013-07-23 17:06:00,
2013-07-23 13:11:00,82.9,73.3,29.67,NW,315,0.0,0.0,73,0.00,,,0.00,WUHU216HW,2013-07-23 17:11:00,
2013-07-23 13:16:00,82.7,73.1,29.67,NW,315,0.0,0.0,73,0.00,,,0.00,WUHU216HW,2013-07-23 17:16:00,
2013-07-23 13:21:00,82.5,73.0,29.67,NNE,23,0.0,0.0,73,0.00,,,0.00,WUHU216HW,2013-07-23 17:21:00,
2013-07-23 13:26:00,82.7,73.1,29.66,North,0,0.0,0.0,73,0.00,,,0.00,WUHU216HW,2013-07-23 17:26:00,
2013-07-23 13:31:00,82.7,73.1,29.66,NNE,23,0.0,0.0,73,0.00,,,0.00,WUHU216HW,2013-07-23 17:31:00,
2013-07-23 13:36:00,82.5,73.1,29.66,SE,135,0.0,0.0,73,0.00,,,0.00,WUHU216HW,2013-07-23 17:36:00,
2013-07-23 13:41:00,82.7,73.1,29.66,South,180,0.0,0.0,73,0.00,,,0.00,WUHU216HW,2013-07-23 17:41:00,
2013-07-23 13:46:00,82.9,73.3,29.66,NNE,23,0.0,0.0,73,0.00,,,0.00,WUHU216HW,2013-07-23 17:46:00,
2013-07-23 13:51:00,83.1,73.9,29.66,SSW,203,0.0,0.0,74,0.00,,,0.00,WUHU216HW,2013-07-23 17:51:00,
2013-07-23 13:56:00,83.8,74.2,29.66,SSE,158,0.0,0.0,73,0.00,,,0.00,WUHU216HW,2013-07-23 17:56:00,
2013-07-23 14:01:00,84.0,74.4,29.66,NNW,338,0.0,0.0,73,0.00,,,0.00,WUHU216HW,2013-07-23 18:01:00,
2013-07-23 14:07:00,84.5,74.5,29.65,WNW,293,0.0,0.0,72,0.00,,,0.00,WUHU216HW,2013-07-23 18:07:00,
2013-07-23 14:12:00,84.7,73.9,29.65,NNW,338,0.0,0.0,70,0.00,,,0.00,WUHU216HW,2013-07-23 18:12:00,
2013-07-23 14:17:00,84.9,73.6,29.65,SW,225,0.0,0.0,69,0.00,,,0.00,WUHU216HW,2013-07-23 18:17:00,
2013-07-23 14:22:00,85.1,73.3,29.65,NNW,338,0.0,0.0,68,0.00,,,0.00,WUHU216HW,2013-07-23 18:22:00,
2013-07-23 14:27:00,84.9,72.7,29.65,North,0,0.0,0.0,67,0.00,,,0.00,WUHU216HW,2013-07-23 18:27:00,
2013-07-23 14:32:00,84.9,73.2,29.65,NW,315,0.0,0.0,68,0.00,,,0.00,WUHU216HW,2013-07-23 18:32:00,
2013-07-23 14:37:00,85.2,73.0,29.64,WNW,293,0.0,0.0,67,0.00,,,0.00,WUHU216HW,2013-07-23 18:37:00,
2013-07-23 14:42:00,85.2,73.0,29.64,NNE,23,0.0,0.0,67,0.00,,,0.00,WUHU216HW,2013-07-23 18:42:00,
2013-07-23 14:48:00,85.1,72.9,29.64,NE,45,0.0,0.0,67,0.00,,,0.00,WUHU216HW,2013-07-23 18:48:00,
2013-07-23 14:53:00,85.2,73.5,29.64,NE,45,0.0,0.0,68,0.00,,,0.00,WUHU216HW,2013-07-23 18:53:00,
2013-07-23 14:58:00,85.2,73.0,29.63,NNW,338,0.0,0.0,67,0.00,,,0.00,WUHU216HW,2013-07-23 18:58:00,
2013-07-23 15:03:00,85.6,73.4,29.63,North,0,0.0,0.0,67,0.00,,,0.00,WUHU216HW,2013-07-23 19:03:00,
2013-07-23 15:08:00,85.6,73.9,29.63,NW,315,0.0,0.0,68,0.00,,,0.00,WUHU216HW,2013-07-23 19:08:00,
2013-07-23 15:13:00,85.2,73.0,29.63,SW,225,0.0,0.0,67,0.00,,,0.00,WUHU216HW,2013-07-23 19:13:00,
2013-07-23 15:18:00,84.9,73.2,29.63,SE,135,0.0,0.0,68,0.00,,,0.00,WUHU216HW,2013-07-23 19:18:00,
2013-07-23 15:24:00,84.7,73.0,29.63,NNE,23,0.0,0.0,68,0.00,,,0.00,WUHU216HW,2013-07-23 19:24:00,
2013-07-23 15:29:00,84.9,73.4,29.62,South,180,0.0,0.0,69,0.00,,,0.00,WUHU216HW,2013-07-23 19:29:00,
2013-07-23 15:34:00,85.1,73.3,29.63,NW,315,0.0,0.0,68,0.00,,,0.00,WUHU216HW,2013-07-23 19:34:00,
2013-07-23 15:39:00,85.2,73.0,29.62,NNE,23,0.0,0.0,67,0.00,,,0.00,WUHU216HW,2013-07-23 19:39:00,
2013-07-23 15:44:00,85.4,73.2,29.62,SW,225,0.0,0.0,67,0.00,,,0.00,WUHU216HW,2013-07-23 19:44:00,
2013-07-23 15:49:00,85.6,73.4,29.62,SE,135,0.0,0.0,67,0.00,,,0.00,WUHU216HW,2013-07-23 19:49:00,
2013-07-23 15:54:00,85.8,73.1,29.61,SW,225,0.0,0.0,66,0.00,,,0.00,WUHU216HW,2013-07-23 19:54:00,
2013-07-23 15:59:00,85.8,73.1,29.62,WSW,248,0.0,0.0,66,0.00,,,0.00,WUHU216HW,2013-07-23 19:59:00,
2013-07-23 16:04:00,85.8,73.1,29.61,NE,45,0.0,0.0,66,0.00,,,0.00,WUHU216HW,2013-07-23 20:04:00,
2013-07-23 16:09:00,85.8,73.1,29.61,NNE,23,0.0,0.0,66,0.00,,,0.00,WUHU216HW,2013-07-23 20:09:00,
2013-07-23 16:15:00,85.8,72.6,29.61,WSW,248,0.0,0.0,65,0.00,,,0.00,WUHU216HW,2013-07-23 20:15:00,
2013-07-23 16:20:00,86.1,73.0,29.61,SSW,203,0.0,0.0,65,0.00,,,0.00,WUHU216HW,2013-07-23 20:20:00,
2013-07-23 16:25:00,86.1,72.5,29.61,West,270,0.0,0.0,64,0.00,,,0.00,WUHU216HW,2013-07-23 20:25:00,
2013-07-23 16:30:00,86.1,73.0,29.61,West,270,0.0,0.0,65,0.00,,,0.00,WUHU216HW,2013-07-23 20:30:00,
2013-07-23 16:35:00,86.1,73.0,29.60,North,0,0.0,0.0,65,0.00,,,0.00,WUHU216HW,2013-07-23 20:35:00,
2013-07-23 16:40:00,86.1,73.0,29.60,NNW,338,0.0,0.0,65,0.00,,,0.00,WUHU216HW,2013-07-23 20:40:00,
2013-07-23 16:45:00,86.3,73.2,29.61,WNW,293,0.0,0.0,65,0.00,,,0.00,WUHU216HW,2013-07-23 20:45:00,
2013-07-23 16:50:00,86.3,72.7,29.60,NW,315,0.0,0.0,64,0.00,,,0.00,WUHU216HW,2013-07-23 20:50:00,
2013-07-23 16:56:00,86.3,72.7,29.60,WSW,248,0.0,0.0,64,0.00,,,0.00,WUHU216HW,2013-07-23 20:56:00,
2013-07-23 17:01:00,86.3,72.7,29.60,South,180,0.0,0.0,64,0.00,,,0.00,WUHU216HW,2013-07-23 21:01:00,
2013-07-23 17:06:00,86.5,72.8,29.60,NW,315,0.0,0.0,64,0.00,,,0.00,WUHU216HW,2013-07-23 21:06:00,
2013-07-23 17:11:00,86.3,72.7,29.60,SSE,158,0.0,0.0,64,0.00,,,0.00,WUHU216HW,2013-07-23 21:11:00,
2013-07-23 17:16:00,86.1,73.0,29.60,SSW,203,0.0,0.0,65,0.00,,,0.00,WUHU216HW,2013-07-23 21:16:00,
2013-07-23 17:21:00,86.1,73.0,29.60,West,270,0.0,0.0,65,0.00,,,0.00,WUHU216HW,2013-07-23 21:21:00,
2013-07-23 17:26:00,86.3,73.6,29.60,South,180,0.0,0.0,66,0.00,,,0.00,WUHU216HW,2013-07-23 21:26:00,
2013-07-23 17:32:00,86.5,74.2,29.59,SW,225,0.0,0.0,67,0.00,,,0.00,WUHU216HW,2013-07-23 21:32:00,
2013-07-23 17:37:00,86.5,74.4,29.59,WSW,248,0.0,0.0,67,0.00,,,0.00,WUHU216HW,2013-07-23 21:37:00,
2013-07-23 17:42:00,86.5,74.2,29.59,North,0,0.0,0.0,66,0.00,,,0.00,WUHU216HW,2013-07-23 21:42:00,
2013-07-23 17:47:00,86.5,73.3,29.59,NW,315,0.0,0.0,65,0.00,,,0.00,WUHU216HW,2013-07-23 21:47:00,
2013-07-23 17:52:00,86.5,73.3,29.59,NNW,338,0.0,0.0,65,0.00,,,0.00,WUHU216HW,2013-07-23 21:52:00,
2013-07-23 17:58:00,86.5,73.8,29.59,WSW,248,0.0,0.0,66,0.00,,,0.00,WUHU216HW,2013-07-23 21:58:00,
2013-07-23 18:03:00,86.5,73.8,29.59,WNW,293,0.0,0.0,66,0.00,,,0.00,WUHU216HW,2013-07-23 22:03:00,
2013-07-23 18:08:00,86.3,73.6,29.59,SW,225,0.0,0.0,66,0.00,,,0.00,WUHU216HW,2013-07-23 22:08:00,
2013-07-23 18:13:00,86.1,73.9,29.59,NE,45,0.0,0.0,67,0.00,,,0.00,WUHU216HW,2013-07-23 22:13:00,
2013-07-23 18:18:00,86.1,73.9,29.58,West,270,0.0,0.0,67,0.00,,,0.00,WUHU216HW,2013-07-23 22:18:00,
2013-07-23 18:23:00,86.0,73.7,29.58,SSE,158,0.0,0.0,67,0.00,,,0.00,WUHU216HW,2013-07-23 22:23:00,
2013-07-23 18:28:00,85.8,73.6,29.58,SW,225,0.0,0.0,67,0.00,,,0.00,WUHU216HW,2013-07-23 22:28:00,
2013-07-23 18:33:00,85.8,73.6,29.59,SSE,158,0.0,0.0,67,0.00,,,0.00,WUHU216HW,2013-07-23 22:33:00,
2013-07-23 18:38:00,85.2,73.0,29.58,WSW,248,0.0,0.0,67,0.00,,,0.00,WUHU216HW,2013-07-23 22:38:00,
2013-07-23 18:43:00,85.2,73.0,29.59,West,270,0.0,0.0,67,0.00,,,0.00,WUHU216HW,2013-07-23 22:43:00,
2013-07-23 18:48:00,85.1,72.9,29.59,SW,225,0.0,0.0,67,0.00,,,0.00,WUHU216HW,2013-07-23 22:48:00,
2013-07-23 18:54:00,84.9,73.2,29.59,SW,225,0.0,0.0,68,0.00,,,0.00,WUHU216HW,2013-07-23 22:54:00,
2013-07-23 18:59:00,84.7,73.0,29.59,SW,225,0.0,0.0,68,0.00,,,0.00,WUHU216HW,2013-07-23 22:59:00,
2013-07-23 19:04:00,84.3,73.1,29.59,SW,225,0.0,0.0,69,0.00,,,0.00,WUHU216HW,2013-07-23 23:04:00,
2013-07-23 19:10:00,84.3,73.5,29.59,SW,225,0.0,0.0,70,0.00,,,0.00,WUHU216HW,2013-07-23 23:10:00,
2013-07-23 19:15:00,84.5,74.1,29.59,SE,135,0.0,0.0,71,0.00,,,0.00,WUHU216HW,2013-07-23 23:15:00,
2013-07-23 19:20:00,84.3,73.5,29.60,NW,315,0.0,0.0,70,0.00,,,0.00,WUHU216HW,2013-07-23 23:20:00,
2013-07-23 19:25:00,84.3,73.1,29.60,SW,225,0.0,0.0,69,0.00,,,0.00,WUHU216HW,2013-07-23 23:25:00,
2013-07-23 19:30:00,84.3,72.6,29.60,West,270,0.0,0.0,68,0.00,,,0.00,WUHU216HW,2013-07-23 23:30:00,
2013-07-23 19:35:00,84.3,72.6,29.60,SSE,158,0.0,0.0,68,0.00,,,0.00,WUHU216HW,2013-07-23 23:35:00,
2013-07-23 19:40:00,84.2,72.5,29.60,NNW,338,0.0,0.0,68,0.00,,,0.00,WUHU216HW,2013-07-23 23:40:00,
2013-07-23 19:45:00,84.0,72.7,29.59,South,180,0.0,0.0,69,0.00,,,0.00,WUHU216HW,2013-07-23 23:45:00,
2013-07-23 19:51:00,83.8,72.5,29.60,South,180,0.0,0.0,69,0.00,,,0.00,WUHU216HW,2013-07-23 23:51:00,
2013-07-23 19:56:00,83.4,72.6,29.60,South,180,0.0,0.0,70,0.00,,,0.00,WUHU216HW,2013-07-23 23:56:00,
2013-07-23 20:01:00,82.9,72.5,29.60,South,180,0.0,0.0,70,0.00,,,0.00,WUHU216HW,2013-07-24 00:01:00,
2013-07-23 20:06:00,82.5,72.1,29.60,South,180,0.0,0.0,71,0.00,,,0.00,WUHU216HW,2013-07-24 00:06:00,
2013-07-23 20:11:00,82.2,72.2,29.59,South,180,0.0,0.0,72,0.00,,,0.00,WUHU216HW,2013-07-24 00:11:00,
2013-07-23 20:17:00,82.0,72.5,29.60,South,180,0.0,0.0,73,0.00,,,0.00,WUHU216HW,2013-07-24 00:17:00,
2013-07-23 20:22:00,81.6,72.5,29.59,South,180,0.0,0.0,73,0.00,,,0.00,WUHU216HW,2013-07-24 00:22:00,
2013-07-23 20:27:00,81.3,72.2,29.60,South,180,0.0,0.0,74,0.00,,,0.00,WUHU216HW,2013-07-24 00:27:00,
2013-07-23 20:32:00,81.1,72.4,29.60,South,180,0.0,0.0,75,0.00,,,0.00,WUHU216HW,2013-07-24 00:32:00,
2013-07-23 20:37:00,80.7,72.1,29.59,South,180,0.0,0.0,75,0.00,,,0.00,WUHU216HW,2013-07-24 00:37:00,
2013-07-23 20:42:00,80.4,72.1,29.60,South,180,0.0,0.0,76,0.00,,,0.00,WUHU216HW,2013-07-24 00:42:00,
2013-07-23 20:48:00,80.2,71.9,29.60,South,180,0.0,0.0,76,0.00,,,0.00,WUHU216HW,2013-07-24 00:48:00,
2013-07-23 20:53:00,80.0,71.8,29.60,South,180,0.0,0.0,76,0.00,,,0.00,WUHU216HW,2013-07-24 00:53:00,
2013-07-23 20:58:00,79.7,71.4,29.60,South,180,0.0,0.0,76,0.00,,,0.00,WUHU216HW,2013-07-24 00:58:00,
2013-07-23 21:03:00,79.5,71.6,29.60,South,180,0.0,0.0,77,0.00,,,0.00,WUHU216HW,2013-07-24 01:03:00,
2013-07-23 21:08:00,79.3,71.8,29.61,South,180,0.0,0.0,78,0.00,,,0.00,WUHU216HW,2013-07-24 01:08:00,
2013-07-23 21:13:00,79.1,71.7,29.61,South,180,0.0,0.0,78,0.00,,,0.00,WUHU216HW,2013-07-24 01:13:00,
2013-07-23 21:18:00,78.9,71.9,29.61,South,180,0.0,0.0,79,0.00,,,0.00,WUHU216HW,2013-07-24 01:18:00,
2013-07-23 21:23:00,78.8,71.7,29.61,South,180,0.0,0.0,79,0.00,,,0.00,WUHU216HW,2013-07-24 01:23:00,
2013-07-23 21:28:00,78.6,71.1,29.61,South,180,0.0,0.0,78,0.00,,,0.00,WUHU216HW,2013-07-24 01:28:00,
2013-07-23 21:33:00,78.6,71.5,29.62,South,180,0.0,0.0,79,0.00,,,0.00,WUHU216HW,2013-07-24 01:33:00,
2013-07-23 21:39:00,78.6,71.5,29.62,South,180,0.0,0.0,79,0.00,,,0.00,WUHU216HW,2013-07-24 01:39:00,
2013-07-23 21:44:00,78.6,71.5,29.62,South,180,0.0,0.0,79,0.00,,,0.00,WUHU216HW,2013-07-24 01:44:00,
2013-07-23 21:49:00,78.4,71.7,29.62,South,180,0.0,0.0,80,0.00,,,0.00,WUHU216HW,2013-07-24 01:49:00,
2013-07-23 21:54:00,78.2,71.6,29.62,South,180,0.0,0.0,80,0.00,,,0.00,WUHU216HW,2013-07-24 01:54:00,
2013-07-23 21:59:00,78.0,71.4,29.62,South,180,0.0,0.0,80,0.00,,,0.00,WUHU216HW,2013-07-24 01:59:00,
2013-07-23 22:04:00,78.0,71.7,29.63,South,180,0.0,0.0,81,0.00,,,0.00,WUHU216HW,2013-07-24 02:04:00,
2013-07-23 22:09:00,78.0,71.7,29.63,South,180,0.0,0.0,81,0.00,,,0.00,WUHU216HW,2013-07-24 02:09:00,
2013-07-23 22:14:00,77.9,71.6,29.63,South,180,0.0,0.0,81,0.00,,,0.00,WUHU216HW,2013-07-24 02:14:00,
2013-07-23 22:19:00,77.7,71.4,29.63,South,180,0.0,0.0,81,0.00,,,0.00,WUHU216HW,2013-07-24 02:19:00,
2013-07-23 22:24:00,77.7,71.4,29.63,South,180,0.0,0.0,81,0.00,,,0.00,WUHU216HW,2013-07-24 02:24:00,
2013-07-23 22:30:00,77.5,71.2,29.63,South,180,0.0,0.0,81,0.00,,,0.00,WUHU216HW,2013-07-24 02:30:00,
2013-07-23 22:35:00,77.5,71.6,29.63,South,180,0.0,0.0,82,0.00,,,0.00,WUHU216HW,2013-07-24 02:35:00,
2013-07-23 22:41:00,77.5,71.6,29.62,South,180,0.0,0.0,82,0.00,,,0.00,WUHU216HW,2013-07-24 02:41:00,
2013-07-23 22:46:00,77.5,71.6,29.63,South,180,0.0,0.0,82,0.00,,,0.00,WUHU216HW,2013-07-24 02:46:00,
2013-07-23 22:51:00,77.3,71.4,29.63,South,180,0.0,0.0,82,0.00,,,0.00,WUHU216HW,2013-07-24 02:51:00,
2013-07-23 22:56:00,77.1,71.6,29.63,South,180,0.0,0.0,83,0.00,,,0.00,WUHU216HW,2013-07-24 02:56:00,
2013-07-23 23:01:00,77.1,71.6,29.63,South,180,0.0,0.0,83,0.00,,,0.00,WUHU216HW,2013-07-24 03:01:00,
2013-07-23 23:06:00,77.0,71.4,29.63,South,180,0.0,0.0,83,0.00,,,0.00,WUHU216HW,2013-07-24 03:06:00,
2013-07-23 23:12:00,76.8,70.8,29.63,South,180,0.0,0.0,82,0.00,,,0.00,WUHU216HW,2013-07-24 03:12:00,
2013-07-23 23:17:00,76.8,70.8,29.63,South,180,0.0,0.0,82,0.00,,,0.00,WUHU216HW,2013-07-24 03:17:00,
2013-07-23 23:22:00,76.8,71.2,29.64,South,180,0.0,0.0,83,0.00,,,0.00,WUHU216HW,2013-07-24 03:22:00,
2013-07-23 23:27:00,76.8,71.2,29.64,South,180,0.0,0.0,83,0.00,,,0.00,WUHU216HW,2013-07-24 03:27:00,
2013-07-23 23:32:00,76.8,71.2,29.64,South,180,0.0,0.0,83,0.00,,,0.00,WUHU216HW,2013-07-24 03:32:00,
2013-07-23 23:37:00,76.8,71.2,29.63,South,180,0.0,0.0,83,0.00,,,0.00,WUHU216HW,2013-07-24 03:37:00,
2013-07-23 23:42:00,76.6,71.0,29.63,South,180,0.0,0.0,83,0.00,,,0.00,WUHU216HW,2013-07-24 03:42:00,
2013-07-23 23:47:00,76.6,71.4,29.62,South,180,0.0,0.0,84,0.00,,,0.00,WUHU216HW,2013-07-24 03:47:00,
2013-07-23 23:52:00,76.6,71.4,29.63,South,180,0.0,0.0,84,0.00,,,0.00,WUHU216HW,2013-07-24 03:52:00,
2013-07-23 23:57:00,76.6,71.4,29.63,South,180,0.0,0.0,84,0.00,,,0.00,WUHU216HW,2013-07-24 03:57:00,